createdAt,value
2019-03-11T00:00:11.220Z,1004.98
2019-03-11T00:00:37.369Z,1004.98
2019-03-11T00:01:03.431Z,1005
2019-03-11T00:01:29.540Z,1005.02
2019-03-11T00:01:55.643Z,1005.03
2019-03-11T00:02:21.753Z,1005.18
2019-03-11T00:02:47.854Z,1005.09
2019-03-11T00:03:14.028Z,1005.07
2019-03-11T00:03:40.130Z,1005.14
2019-03-11T00:04:06.791Z,1005.09
2019-03-11T00:04:36.293Z,1005.09
2019-03-11T00:05:02.400Z,1005.11
2019-03-11T00:05:28.521Z,1005.09
2019-03-11T00:05:54.653Z,1005.07
2019-03-11T00:06:20.763Z,1005.06
2019-03-11T00:06:46.857Z,1005.08
2019-03-11T00:07:12.961Z,1005.07
2019-03-11T00:07:39.073Z,1005.05
2019-03-11T00:08:05.173Z,1005.16
2019-03-11T00:08:31.277Z,1005.11
2019-03-11T00:08:57.379Z,1005.1
2019-03-11T00:09:23.484Z,1005.22
2019-03-11T00:09:49.593Z,1005.14
2019-03-11T00:10:15.697Z,1005.1
2019-03-11T00:10:41.797Z,1005.08
2019-03-11T00:11:07.904Z,1005.09
2019-03-11T00:11:34.005Z,1005.05
2019-03-11T00:12:00.111Z,1005.07
2019-03-11T00:12:26.215Z,1005.11
2019-03-11T00:12:52.390Z,1005.07
2019-03-11T00:13:18.479Z,1005.07
2019-03-11T00:13:44.648Z,1005.07
2019-03-11T00:14:10.784Z,1005.12
2019-03-11T00:14:36.908Z,1005.08
2019-03-11T00:15:03.014Z,1005.08
2019-03-11T00:15:29.123Z,1005.05
2019-03-11T00:15:55.223Z,1005.07
2019-03-11T00:16:21.324Z,1005.11
2019-03-11T00:16:47.433Z,1005.05
2019-03-11T00:17:13.550Z,1005.1
2019-03-11T00:17:39.645Z,1005.12
2019-03-11T00:18:05.777Z,1005.12
2019-03-11T00:18:31.880Z,1005.03
2019-03-11T00:18:57.986Z,1005.06
2019-03-11T00:19:24.121Z,1005.09
2019-03-11T00:19:50.227Z,1005.08
2019-03-11T00:20:16.333Z,1005.06
2019-03-11T00:20:42.432Z,1005.05
2019-03-11T00:21:08.538Z,1005.01
2019-03-11T00:21:34.645Z,1005
2019-03-11T00:22:00.747Z,1004.93
2019-03-11T00:22:26.865Z,1004.96
2019-03-11T00:22:52.952Z,1004.95
2019-03-11T00:23:19.063Z,1004.96
2019-03-11T00:23:45.157Z,1004.96
2019-03-11T00:24:11.271Z,1004.89
2019-03-11T00:24:37.367Z,1004.92
2019-03-11T00:25:03.479Z,1004.9
2019-03-11T00:25:29.581Z,1004.87
2019-03-11T00:25:55.688Z,1004.9
2019-03-11T00:26:21.793Z,1004.91
2019-03-11T00:26:47.899Z,1004.94
2019-03-11T00:27:13.999Z,1004.93
2019-03-11T00:27:40.107Z,1004.95
2019-03-11T00:28:06.211Z,1004.99
2019-03-11T00:28:32.320Z,1004.98
2019-03-11T00:28:58.437Z,1004.96
2019-03-11T00:29:24.535Z,1004.91
2019-03-11T00:29:50.648Z,1004.93
2019-03-11T00:30:16.759Z,1004.93
2019-03-11T00:30:42.851Z,1004.96
2019-03-11T00:31:08.991Z,1004.94
2019-03-11T00:31:35.091Z,1004.91
2019-03-11T00:32:01.199Z,1004.9
2019-03-11T00:32:27.300Z,1004.85
2019-03-11T00:32:53.396Z,1004.96
2019-03-11T00:33:19.504Z,1004.95
2019-03-11T00:33:45.613Z,1004.94
2019-03-11T00:34:11.717Z,1004.88
2019-03-11T00:34:37.817Z,1004.94
2019-03-11T00:35:03.922Z,1004.94
2019-03-11T00:35:30.079Z,1004.88
2019-03-11T00:35:56.183Z,1004.89
2019-03-11T00:36:22.292Z,1004.93
2019-03-11T00:36:48.389Z,1004.87
2019-03-11T00:37:14.487Z,1004.88
2019-03-11T00:37:40.594Z,1004.93
2019-03-11T00:38:06.716Z,1004.88
2019-03-11T00:38:32.823Z,1004.91
2019-03-11T00:38:58.930Z,1004.87
2019-03-11T00:39:25.035Z,1005.02
2019-03-11T00:39:51.138Z,1004.88
2019-03-11T00:40:17.247Z,1004.96
2019-03-11T00:40:43.343Z,1004.98
2019-03-11T00:41:09.484Z,1004.9
2019-03-11T00:41:35.585Z,1004.94
2019-03-11T00:42:01.688Z,1004.96
2019-03-11T00:42:27.827Z,1004.9
2019-03-11T00:42:53.933Z,1004.98
2019-03-11T00:43:20.039Z,1005.03
2019-03-11T00:43:46.146Z,1004.99
2019-03-11T00:44:12.249Z,1004.94
2019-03-11T00:44:38.356Z,1004.87
2019-03-11T00:45:04.460Z,1005.02
2019-03-11T00:45:30.563Z,1004.92
2019-03-11T00:45:56.671Z,1004.95
2019-03-11T00:46:22.777Z,1004.9
2019-03-11T00:46:48.882Z,1004.99
2019-03-11T00:47:15.011Z,1004.9
2019-03-11T00:47:41.112Z,1004.94
2019-03-11T00:48:09.194Z,1004.98
2019-03-11T00:48:35.298Z,1004.88
2019-03-11T00:49:01.403Z,1004.87
2019-03-11T00:49:27.513Z,1004.88
2019-03-11T00:49:53.616Z,1004.93
2019-03-11T00:50:19.719Z,1004.92
2019-03-11T00:50:45.824Z,1004.88
2019-03-11T00:51:11.934Z,1004.92
2019-03-11T00:51:38.040Z,1004.91
2019-03-11T00:52:04.142Z,1004.89
2019-03-11T00:52:30.272Z,1004.88
2019-03-11T00:52:56.469Z,1004.84
2019-03-11T00:53:22.576Z,1004.85
2019-03-11T00:53:48.686Z,1004.85
2019-03-11T00:54:14.792Z,1004.9
2019-03-11T00:54:40.896Z,1004.8
2019-03-11T00:55:06.998Z,1004.84
2019-03-11T00:55:33.104Z,1004.87
2019-03-11T00:55:59.214Z,1004.94
2019-03-11T00:56:25.342Z,1004.94
2019-03-11T00:56:51.453Z,1004.91
2019-03-11T00:57:17.561Z,1004.89
2019-03-11T00:57:43.670Z,1005.01
2019-03-11T00:58:09.759Z,1005
2019-03-11T00:58:36.859Z,1005.01
2019-03-11T00:59:03.006Z,1005.03
2019-03-11T00:59:29.121Z,1005.09
2019-03-11T00:59:55.241Z,1005.16
2019-03-11T01:00:21.357Z,1005.16
2019-03-11T01:00:47.430Z,1005.18
2019-03-11T01:01:13.566Z,1005.14
2019-03-11T01:01:39.668Z,1005.1
2019-03-11T01:02:05.782Z,1005.1
2019-03-11T01:02:31.906Z,1005.13
2019-03-11T01:02:58.041Z,1005.16
2019-03-11T01:03:24.159Z,1005.19
2019-03-11T01:03:50.262Z,1005.22
2019-03-11T01:04:16.360Z,1005.24
2019-03-11T01:04:42.472Z,1005.08
2019-03-11T01:05:08.575Z,1005.09
2019-03-11T01:05:34.679Z,1005.29
2019-03-11T01:06:00.782Z,1005.13
2019-03-11T01:06:26.913Z,1005.25
2019-03-11T01:06:52.998Z,1005.24
2019-03-11T01:07:19.103Z,1005.22
2019-03-11T01:07:45.201Z,1005.21
2019-03-11T01:08:11.308Z,1005.19
2019-03-11T01:08:38.402Z,1005.16
2019-03-11T01:09:04.522Z,1005.22
2019-03-11T01:09:30.628Z,1005.25
2019-03-11T01:09:56.727Z,1005.18
2019-03-11T01:10:22.838Z,1005.04
2019-03-11T01:10:48.971Z,1005.19
2019-03-11T01:11:15.072Z,1005.19
2019-03-11T01:11:41.186Z,1005.18
2019-03-11T01:12:07.320Z,1005.28
2019-03-11T01:12:33.422Z,1005.23
2019-03-11T01:12:59.534Z,1005.21
2019-03-11T01:13:25.641Z,1005.32
2019-03-11T01:13:51.745Z,1005.28
2019-03-11T01:14:17.851Z,1005.2
2019-03-11T01:14:44.948Z,1005.25
2019-03-11T01:15:11.054Z,1005.26
2019-03-11T01:15:37.162Z,1005.15
2019-03-11T01:16:03.298Z,1005.21
2019-03-11T01:16:29.400Z,1005.28
2019-03-11T01:16:55.503Z,1005.29
2019-03-11T01:17:21.680Z,1005.16
2019-03-11T01:17:47.811Z,1005.21
2019-03-11T01:18:13.920Z,1005.12
2019-03-11T01:18:40.024Z,1005.2
2019-03-11T01:19:06.127Z,1005.19
2019-03-11T01:19:32.226Z,1005.14
2019-03-11T01:19:58.334Z,1005.1
2019-03-11T01:20:24.440Z,1005.14
2019-03-11T01:20:50.567Z,1005.11
2019-03-11T01:21:16.675Z,1005.1
2019-03-11T01:21:42.810Z,1005.1
2019-03-11T01:22:08.928Z,1004.97
2019-03-11T01:22:35.020Z,1005.01
2019-03-11T01:23:01.130Z,1004.95
2019-03-11T01:23:27.237Z,1004.98
2019-03-11T01:23:53.339Z,1004.98
2019-03-11T01:24:19.441Z,1005.01
2019-03-11T01:24:45.547Z,1004.96
2019-03-11T01:25:11.675Z,1005.03
2019-03-11T01:25:37.787Z,1005.01
2019-03-11T01:26:03.897Z,1005.03
2019-03-11T01:26:30.001Z,1004.96
2019-03-11T01:26:56.132Z,1005.05
2019-03-11T01:27:22.232Z,1005.01
2019-03-11T01:27:48.333Z,1005.01
2019-03-11T01:28:14.439Z,1005
2019-03-11T01:28:40.545Z,1005.02
2019-03-11T01:29:06.650Z,1005.02
2019-03-11T01:29:32.761Z,1004.95
2019-03-11T01:29:58.860Z,1004.9
2019-03-11T01:30:24.961Z,1004.94
2019-03-11T01:30:51.066Z,1004.87
2019-03-11T01:31:17.174Z,1004.88
2019-03-11T01:31:44.268Z,1004.87
2019-03-11T01:32:10.374Z,1004.84
2019-03-11T01:32:36.488Z,1004.8
2019-03-11T01:33:02.588Z,1004.74
2019-03-11T01:33:28.699Z,1004.73
2019-03-11T01:33:54.803Z,1004.73
2019-03-11T01:34:20.906Z,1004.71
2019-03-11T01:34:47.022Z,1004.7
2019-03-11T01:35:13.117Z,1004.72
2019-03-11T01:35:39.229Z,1004.66
2019-03-11T01:36:05.331Z,1004.68
2019-03-11T01:36:31.425Z,1004.65
2019-03-11T01:36:57.529Z,1004.64
2019-03-11T01:37:23.662Z,1004.69
2019-03-11T01:37:49.796Z,1004.7
2019-03-11T01:38:15.898Z,1004.7
2019-03-11T01:38:42.006Z,1004.68
2019-03-11T01:39:08.111Z,1004.68
2019-03-11T01:39:34.211Z,1004.71
2019-03-11T01:40:00.373Z,1004.77
2019-03-11T01:40:26.462Z,1004.73
2019-03-11T01:40:52.587Z,1004.72
2019-03-11T01:41:18.696Z,1004.71
2019-03-11T01:41:44.798Z,1004.69
2019-03-11T01:42:10.903Z,1004.7
2019-03-11T01:42:37.004Z,1004.68
2019-03-11T01:43:03.138Z,1004.69
2019-03-11T01:43:29.274Z,1004.68
2019-03-11T01:43:55.395Z,1004.68
2019-03-11T01:44:21.533Z,1004.7
2019-03-11T01:44:47.637Z,1004.69
2019-03-11T01:45:13.768Z,1004.68
2019-03-11T01:45:39.875Z,1004.71
2019-03-11T01:46:05.974Z,1004.7
2019-03-11T01:46:32.080Z,1004.74
2019-03-11T01:46:58.190Z,1004.74
2019-03-11T01:47:24.294Z,1004.73
2019-03-11T01:47:50.430Z,1004.75
2019-03-11T01:48:16.529Z,1004.75
2019-03-11T01:48:42.631Z,1004.77
2019-03-11T01:49:08.739Z,1004.75
2019-03-11T01:49:34.843Z,1004.69
2019-03-11T01:50:00.949Z,1004.71
2019-03-11T01:50:27.088Z,1004.72
2019-03-11T01:50:53.190Z,1004.7
2019-03-11T01:51:19.299Z,1004.73
2019-03-11T01:51:45.398Z,1004.76
2019-03-11T01:52:11.494Z,1004.75
2019-03-11T01:52:37.600Z,1004.76
2019-03-11T01:53:03.705Z,1004.76
2019-03-11T01:53:29.835Z,1004.73
2019-03-11T01:53:55.933Z,1004.72
2019-03-11T01:54:22.042Z,1004.78
2019-03-11T01:54:48.143Z,1004.78
2019-03-11T01:55:14.249Z,1004.76
2019-03-11T01:55:40.349Z,1004.77
2019-03-11T01:56:06.460Z,1004.77
2019-03-11T01:56:32.562Z,1004.83
2019-03-11T01:56:58.683Z,1004.77
2019-03-11T01:57:24.792Z,1004.79
2019-03-11T01:57:50.890Z,1004.77
2019-03-11T01:58:16.996Z,1004.76
2019-03-11T01:58:43.097Z,1004.75
2019-03-11T01:59:09.204Z,1004.77
2019-03-11T01:59:35.376Z,1004.75
2019-03-11T02:00:01.426Z,1004.82
2019-03-11T02:00:27.530Z,1004.77
2019-03-11T02:00:53.663Z,1004.79
2019-03-11T02:01:19.771Z,1004.79
2019-03-11T02:01:48.351Z,1004.82
2019-03-11T02:02:12.978Z,1004.82
2019-03-11T02:02:39.085Z,1004.81
2019-03-11T02:03:05.198Z,1004.79
2019-03-11T02:03:31.307Z,1004.81
2019-03-11T02:03:57.413Z,1004.87
2019-03-11T02:04:23.519Z,1004.91
2019-03-11T02:04:49.625Z,1004.87
2019-03-11T02:05:15.725Z,1004.93
2019-03-11T02:05:41.830Z,1004.87
2019-03-11T02:06:07.936Z,1004.94
2019-03-11T02:06:34.042Z,1004.96
2019-03-11T02:07:00.143Z,1004.96
2019-03-11T02:07:26.257Z,1004.99
2019-03-11T02:07:52.358Z,1004.96
2019-03-11T02:08:18.469Z,1004.93
2019-03-11T02:08:44.575Z,1004.98
2019-03-11T02:09:10.678Z,1004.97
2019-03-11T02:09:36.814Z,1004.96
2019-03-11T02:10:02.914Z,1004.97
2019-03-11T02:10:29.017Z,1004.94
2019-03-11T02:10:55.122Z,1004.99
2019-03-11T02:11:21.250Z,1005.04
2019-03-11T02:11:47.361Z,1005.05
2019-03-11T02:12:13.467Z,1005.12
2019-03-11T02:12:39.567Z,1005.08
2019-03-11T02:13:05.663Z,1005.11
2019-03-11T02:13:31.771Z,1005.08
2019-03-11T02:13:57.874Z,1005.01
2019-03-11T02:14:24.003Z,1004.98
2019-03-11T02:14:50.091Z,1004.96
2019-03-11T02:15:16.231Z,1005.02
2019-03-11T02:15:42.348Z,1004.96
2019-03-11T02:16:08.487Z,1005
2019-03-11T02:16:34.586Z,1004.97
2019-03-11T02:17:00.698Z,1004.89
2019-03-11T02:17:26.796Z,1004.84
2019-03-11T02:17:52.902Z,1004.63
2019-03-11T02:18:19.041Z,1004.68
2019-03-11T02:18:45.169Z,1004.87
2019-03-11T02:19:11.270Z,1004.73
2019-03-11T02:19:37.411Z,1004.72
2019-03-11T02:20:03.521Z,1004.7
2019-03-11T02:20:29.621Z,1004.65
2019-03-11T02:20:55.728Z,1004.64
2019-03-11T02:21:21.834Z,1004.66
2019-03-11T02:21:47.941Z,1004.74
2019-03-11T02:22:14.044Z,1004.68
2019-03-11T02:22:40.149Z,1004.71
2019-03-11T02:23:06.255Z,1004.75
2019-03-11T02:23:32.401Z,1004.71
2019-03-11T02:23:58.527Z,1004.65
2019-03-11T02:24:24.657Z,1004.69
2019-03-11T02:24:50.760Z,1004.61
2019-03-11T02:25:16.869Z,1004.61
2019-03-11T02:25:42.971Z,1004.67
2019-03-11T02:26:09.081Z,1004.63
2019-03-11T02:26:35.205Z,1004.67
2019-03-11T02:27:01.308Z,1004.68
2019-03-11T02:27:27.412Z,1004.6
2019-03-11T02:27:53.518Z,1004.68
2019-03-11T02:28:19.624Z,1004.65
2019-03-11T02:28:45.731Z,1004.63
2019-03-11T02:29:11.849Z,1004.64
2019-03-11T02:29:37.943Z,1004.64
2019-03-11T02:30:04.049Z,1004.63
2019-03-11T02:30:30.168Z,1004.64
2019-03-11T02:30:56.306Z,1004.65
2019-03-11T02:31:22.404Z,1004.66
2019-03-11T02:31:48.508Z,1004.66
2019-03-11T02:32:14.726Z,1004.63
2019-03-11T02:32:41.791Z,1004.65
2019-03-11T02:33:07.928Z,1004.64
2019-03-11T02:33:34.070Z,1004.67
2019-03-11T02:34:00.185Z,1004.62
2019-03-11T02:34:26.291Z,1004.66
2019-03-11T02:34:52.420Z,1004.65
2019-03-11T02:35:18.527Z,1004.62
2019-03-11T02:35:44.686Z,1004.62
2019-03-11T02:36:10.843Z,1004.66
2019-03-11T02:36:37.005Z,1004.61
2019-03-11T02:37:03.112Z,1004.66
2019-03-11T02:37:29.210Z,1004.63
2019-03-11T02:37:55.317Z,1004.62
2019-03-11T02:38:21.451Z,1004.6
2019-03-11T02:38:47.552Z,1004.67
2019-03-11T02:39:13.692Z,1004.65
2019-03-11T02:39:39.800Z,1004.61
2019-03-11T02:40:05.933Z,1004.62
2019-03-11T02:40:32.060Z,1004.6
2019-03-11T02:40:58.160Z,1004.61
2019-03-11T02:41:24.295Z,1004.65
2019-03-11T02:41:50.405Z,1004.66
2019-03-11T02:42:16.506Z,1004.65
2019-03-11T02:42:42.691Z,1004.59
2019-03-11T02:43:08.805Z,1004.58
2019-03-11T02:43:34.909Z,1004.66
2019-03-11T02:44:01.017Z,1004.57
2019-03-11T02:44:27.126Z,1004.61
2019-03-11T02:44:53.311Z,1004.57
2019-03-11T02:45:19.389Z,1004.58
2019-03-11T02:45:45.549Z,1004.56
2019-03-11T02:46:11.685Z,1004.64
2019-03-11T02:46:37.838Z,1004.57
2019-03-11T02:47:03.974Z,1004.62
2019-03-11T02:47:30.076Z,1004.58
2019-03-11T02:47:56.194Z,1004.6
2019-03-11T02:48:22.331Z,1004.59
2019-03-11T02:48:48.451Z,1004.63
2019-03-11T02:49:14.567Z,1004.59
2019-03-11T02:49:43.703Z,1004.64
2019-03-11T02:50:07.771Z,1004.59
2019-03-11T02:50:33.905Z,1004.66
2019-03-11T02:51:00.029Z,1004.52
2019-03-11T02:51:26.165Z,1004.59
2019-03-11T02:51:52.277Z,1004.6
2019-03-11T02:52:18.399Z,1004.59
2019-03-11T02:52:44.537Z,1004.55
2019-03-11T02:53:10.694Z,1004.59
2019-03-11T02:53:36.826Z,1004.61
2019-03-11T02:54:02.934Z,1004.64
2019-03-11T02:54:29.066Z,1004.64
2019-03-11T02:54:55.205Z,1004.64
2019-03-11T02:55:21.355Z,1004.63
2019-03-11T02:55:50.682Z,1004.69
2019-03-11T02:56:14.576Z,1004.6
2019-03-11T02:56:40.763Z,1004.65
2019-03-11T02:57:06.858Z,1004.61
2019-03-11T02:57:33.021Z,1004.59
2019-03-11T02:57:59.150Z,1004.6
2019-03-11T02:58:25.317Z,1004.6
2019-03-11T02:58:51.420Z,1004.63
2019-03-11T02:59:17.530Z,1004.61
2019-03-11T02:59:43.659Z,1004.63
2019-03-11T03:00:09.770Z,1004.63
2019-03-11T03:00:35.932Z,1004.59
2019-03-11T03:01:02.070Z,1004.58
2019-03-11T03:01:28.258Z,1004.66
2019-03-11T03:01:54.351Z,1004.58
2019-03-11T03:02:20.549Z,1004.59
2019-03-11T03:02:46.645Z,1004.58
2019-03-11T03:03:12.783Z,1004.58
2019-03-11T03:03:38.926Z,1004.64
2019-03-11T03:04:05.059Z,1004.63
2019-03-11T03:04:31.155Z,1004.52
2019-03-11T03:04:57.258Z,1004.57
2019-03-11T03:05:23.364Z,1004.62
2019-03-11T03:05:49.626Z,1004.58
2019-03-11T03:06:15.751Z,1004.59
2019-03-11T03:06:41.901Z,1004.59
2019-03-11T03:07:08.008Z,1004.56
2019-03-11T03:07:34.114Z,1004.56
2019-03-11T03:08:00.232Z,1004.58
2019-03-11T03:08:26.357Z,1004.58
2019-03-11T03:08:52.489Z,1004.63
2019-03-11T03:09:18.625Z,1004.55
2019-03-11T03:09:45.743Z,1004.5
2019-03-11T03:10:11.843Z,1004.5
2019-03-11T03:10:37.959Z,1004.58
2019-03-11T03:11:04.054Z,1004.52
2019-03-11T03:11:30.162Z,1004.63
2019-03-11T03:11:56.293Z,1004.54
2019-03-11T03:12:22.383Z,1004.54
2019-03-11T03:12:48.495Z,1004.54
2019-03-11T03:13:14.622Z,1004.57
2019-03-11T03:13:40.732Z,1004.52
2019-03-11T03:14:06.834Z,1004.59
2019-03-11T03:14:32.975Z,1004.57
2019-03-11T03:14:59.079Z,1004.57
2019-03-11T03:15:25.259Z,1004.56
2019-03-11T03:15:51.365Z,1004.59
2019-03-11T03:16:17.466Z,1004.56
2019-03-11T03:16:43.571Z,1004.56
2019-03-11T03:17:09.703Z,1004.58
2019-03-11T03:17:35.806Z,1004.59
2019-03-11T03:18:02.044Z,1004.61
2019-03-11T03:18:28.137Z,1004.57
2019-03-11T03:18:54.272Z,1004.57
2019-03-11T03:19:20.431Z,1004.58
2019-03-11T03:19:46.535Z,1004.54
2019-03-11T03:20:12.648Z,1004.55
2019-03-11T03:20:38.774Z,1004.57
2019-03-11T03:21:04.876Z,1004.55
2019-03-11T03:21:31.012Z,1004.6
2019-03-11T03:21:57.118Z,1004.58
2019-03-11T03:22:23.245Z,1004.54
2019-03-11T03:22:49.398Z,1004.55
2019-03-11T03:23:15.564Z,1004.58
2019-03-11T03:23:41.641Z,1004.57
2019-03-11T03:24:07.822Z,1004.57
2019-03-11T03:24:33.967Z,1004.53
2019-03-11T03:25:00.453Z,1004.58
2019-03-11T03:25:33.456Z,1004.56
2019-03-11T03:25:55.668Z,1004.55
2019-03-11T03:26:21.866Z,1004.55
2019-03-11T03:26:47.993Z,1004.54
2019-03-11T03:27:14.152Z,1004.54
2019-03-11T03:27:40.367Z,1004.59
2019-03-11T03:28:07.009Z,1004.59
2019-03-11T03:28:33.008Z,1004.68
2019-03-11T03:28:59.117Z,1004.61
2019-03-11T03:29:25.269Z,1004.65
2019-03-11T03:29:51.371Z,1004.6
2019-03-11T03:30:17.521Z,1004.61
2019-03-11T03:30:43.696Z,1004.59
2019-03-11T03:31:09.886Z,1004.57
2019-03-11T03:31:36.045Z,1004.6
2019-03-11T03:32:02.219Z,1004.58
2019-03-11T03:32:28.320Z,1004.58
2019-03-11T03:32:54.451Z,1004.59
2019-03-11T03:33:20.614Z,1004.69
2019-03-11T03:33:46.770Z,1004.65
2019-03-11T03:34:12.930Z,1004.62
2019-03-11T03:34:39.092Z,1004.57
2019-03-11T03:35:05.224Z,1004.59
2019-03-11T03:35:31.514Z,1004.67
2019-03-11T03:35:57.615Z,1004.61
2019-03-11T03:36:23.814Z,1004.59
2019-03-11T03:36:49.973Z,1004.57
2019-03-11T03:37:16.101Z,1004.64
2019-03-11T03:37:42.243Z,1004.63
2019-03-11T03:38:08.375Z,1004.64
2019-03-11T03:38:37.452Z,1004.59
2019-03-11T03:39:03.547Z,1004.59
2019-03-11T03:39:29.659Z,1004.56
2019-03-11T03:39:55.759Z,1004.5
2019-03-11T03:40:21.914Z,1004.57
2019-03-11T03:40:48.035Z,1004.53
2019-03-11T03:41:14.145Z,1004.58
2019-03-11T03:41:40.243Z,1004.52
2019-03-11T03:42:06.386Z,1004.55
2019-03-11T03:42:32.574Z,1004.54
2019-03-11T03:42:58.978Z,1004.49
2019-03-11T03:43:25.404Z,1004.55
2019-03-11T03:43:51.492Z,1004.53
2019-03-11T03:44:17.617Z,1004.58
2019-03-11T03:44:43.754Z,1004.53
2019-03-11T03:45:09.859Z,1004.58
2019-03-11T03:45:36.016Z,1004.54
2019-03-11T03:46:02.141Z,1004.51
2019-03-11T03:46:30.257Z,1004.46
2019-03-11T03:46:56.417Z,1004.45
2019-03-11T03:47:22.548Z,1004.48
2019-03-11T03:47:48.677Z,1004.53
2019-03-11T03:48:14.932Z,1004.49
2019-03-11T03:48:41.369Z,1004.49
2019-03-11T03:49:07.872Z,1004.47
2019-03-11T03:49:33.975Z,1004.45
2019-03-11T03:50:00.074Z,1004.46
2019-03-11T03:50:26.321Z,1004.45
2019-03-11T03:50:52.529Z,1004.44
2019-03-11T03:51:18.670Z,1004.43
2019-03-11T03:51:44.860Z,1004.44
2019-03-11T03:52:11.051Z,1004.47
2019-03-11T03:52:37.186Z,1004.4
2019-03-11T03:53:03.319Z,1004.45
2019-03-11T03:53:29.426Z,1004.37
2019-03-11T03:53:55.562Z,1004.41
2019-03-11T03:54:21.691Z,1004.33
2019-03-11T03:54:47.798Z,1004.38
2019-03-11T03:55:13.920Z,1004.39
2019-03-11T03:55:40.078Z,1004.38
2019-03-11T03:56:06.194Z,1004.35
2019-03-11T03:56:32.335Z,1004.38
2019-03-11T03:56:59.459Z,1004.34
2019-03-11T03:57:25.625Z,1004.34
2019-03-11T03:57:51.774Z,1004.35
2019-03-11T03:58:17.908Z,1004.41
2019-03-11T03:58:44.097Z,1004.46
2019-03-11T03:59:10.196Z,1004.31
2019-03-11T03:59:36.326Z,1004.38
2019-03-11T04:00:02.527Z,1004.37
2019-03-11T04:00:28.672Z,1004.4
2019-03-11T04:00:54.832Z,1004.39
2019-03-11T04:01:20.945Z,1004.35
2019-03-11T04:01:47.074Z,1004.42
2019-03-11T04:02:13.184Z,1004.48
2019-03-11T04:02:39.312Z,1004.46
2019-03-11T04:03:05.426Z,1004.45
2019-03-11T04:03:31.555Z,1004.47
2019-03-11T04:03:57.705Z,1004.41
2019-03-11T04:04:23.800Z,1004.44
2019-03-11T04:04:49.900Z,1004.4
2019-03-11T04:05:16.168Z,1004.53
2019-03-11T04:05:42.267Z,1004.41
2019-03-11T04:06:08.373Z,1004.45
2019-03-11T04:06:34.557Z,1004.38
2019-03-11T04:07:00.616Z,1004.43
2019-03-11T04:07:26.711Z,1004.45
2019-03-11T04:07:52.818Z,1004.41
2019-03-11T04:08:18.920Z,1004.5
2019-03-11T04:08:45.018Z,1004.51
2019-03-11T04:09:11.119Z,1004.45
2019-03-11T04:09:37.223Z,1004.47
2019-03-11T04:10:03.383Z,1004.48
2019-03-11T04:10:32.443Z,1004.51
2019-03-11T04:10:56.637Z,1004.51
2019-03-11T04:11:22.770Z,1004.56
2019-03-11T04:11:48.904Z,1004.47
2019-03-11T04:12:15.007Z,1004.46
2019-03-11T04:12:41.171Z,1004.45
2019-03-11T04:13:07.275Z,1004.52
2019-03-11T04:13:33.430Z,1004.47
2019-03-11T04:13:59.515Z,1004.46
2019-03-11T04:14:25.645Z,1004.52
2019-03-11T04:14:51.748Z,1004.47
2019-03-11T04:15:17.848Z,1004.47
2019-03-11T04:15:44.027Z,1004.45
2019-03-11T04:16:10.075Z,1004.45
2019-03-11T04:16:36.202Z,1004.51
2019-03-11T04:17:02.303Z,1004.48
2019-03-11T04:17:28.474Z,1004.5
2019-03-11T04:17:54.612Z,1004.48
2019-03-11T04:18:20.728Z,1004.49
2019-03-11T04:18:46.975Z,1004.56
2019-03-11T04:19:13.078Z,1004.51
2019-03-11T04:19:40.111Z,1004.53
2019-03-11T04:20:06.218Z,1004.57
2019-03-11T04:20:32.322Z,1004.6
2019-03-11T04:20:58.509Z,1004.59
2019-03-11T04:21:24.639Z,1004.52
2019-03-11T04:21:50.773Z,1004.57
2019-03-11T04:22:16.877Z,1004.56
2019-03-11T04:22:42.980Z,1004.55
2019-03-11T04:23:09.087Z,1004.52
2019-03-11T04:23:35.272Z,1004.54
2019-03-11T04:24:01.382Z,1004.56
2019-03-11T04:24:27.516Z,1004.58
2019-03-11T04:24:53.732Z,1004.56
2019-03-11T04:25:19.870Z,1004.58
2019-03-11T04:25:46.008Z,1004.56
2019-03-11T04:26:12.139Z,1004.6
2019-03-11T04:26:38.275Z,1004.59
2019-03-11T04:27:04.407Z,1004.62
2019-03-11T04:27:30.542Z,1004.59
2019-03-11T04:27:56.640Z,1004.58
2019-03-11T04:28:22.738Z,1004.63
2019-03-11T04:28:48.847Z,1004.63
2019-03-11T04:29:14.950Z,1004.6
2019-03-11T04:29:41.052Z,1004.62
2019-03-11T04:30:07.161Z,1004.63
2019-03-11T04:30:33.266Z,1004.61
2019-03-11T04:30:59.370Z,1004.61
2019-03-11T04:31:25.507Z,1004.64
2019-03-11T04:31:51.615Z,1004.62
2019-03-11T04:32:17.723Z,1004.64
2019-03-11T04:32:43.871Z,1004.68
2019-03-11T04:33:09.979Z,1004.68
2019-03-11T04:33:36.086Z,1004.69
2019-03-11T04:34:02.188Z,1004.64
2019-03-11T04:34:28.353Z,1004.69
2019-03-11T04:34:55.458Z,1004.69
2019-03-11T04:35:21.554Z,1004.73
2019-03-11T04:35:47.696Z,1004.71
2019-03-11T04:36:13.804Z,1004.71
2019-03-11T04:36:39.913Z,1004.71
2019-03-11T04:37:06.010Z,1004.74
2019-03-11T04:37:32.120Z,1004.78
2019-03-11T04:37:58.224Z,1004.78
2019-03-11T04:38:24.387Z,1004.78
2019-03-11T04:38:50.515Z,1004.81
2019-03-11T04:39:16.631Z,1004.82
2019-03-11T04:39:42.763Z,1004.78
2019-03-11T04:40:08.860Z,1004.83
2019-03-11T04:40:34.968Z,1004.74
2019-03-11T04:41:01.074Z,1004.81
2019-03-11T04:41:27.185Z,1004.82
2019-03-11T04:41:53.304Z,1004.88
2019-03-11T04:42:19.410Z,1004.81
2019-03-11T04:42:45.513Z,1004.83
2019-03-11T04:43:11.620Z,1004.82
2019-03-11T04:43:37.726Z,1004.83
2019-03-11T04:44:06.480Z,1004.82
2019-03-11T04:44:29.959Z,1004.85
2019-03-11T04:44:56.069Z,1004.87
2019-03-11T04:45:22.171Z,1004.85
2019-03-11T04:45:48.277Z,1004.84
2019-03-11T04:46:14.383Z,1004.84
2019-03-11T04:46:40.480Z,1004.81
2019-03-11T04:47:06.593Z,1004.78
2019-03-11T04:47:32.700Z,1004.81
2019-03-11T04:47:58.792Z,1004.77
2019-03-11T04:48:24.903Z,1004.74
2019-03-11T04:48:51.010Z,1004.77
2019-03-11T04:49:17.147Z,1004.74
2019-03-11T04:49:43.261Z,1004.81
2019-03-11T04:50:10.355Z,1004.77
2019-03-11T04:50:36.458Z,1004.77
2019-03-11T04:51:02.555Z,1004.75
2019-03-11T04:51:28.662Z,1004.73
2019-03-11T04:51:54.767Z,1004.74
2019-03-11T04:52:20.867Z,1004.8
2019-03-11T04:52:46.975Z,1004.79
2019-03-11T04:53:13.078Z,1004.8
2019-03-11T04:53:39.186Z,1004.77
2019-03-11T04:54:05.292Z,1004.82
2019-03-11T04:54:31.400Z,1004.82
2019-03-11T04:54:57.502Z,1004.86
2019-03-11T04:55:23.602Z,1004.84
2019-03-11T04:55:49.710Z,1004.8
2019-03-11T04:56:15.836Z,1004.78
2019-03-11T04:56:41.944Z,1004.8
2019-03-11T04:57:08.053Z,1004.8
2019-03-11T04:57:34.155Z,1004.82
2019-03-11T04:58:00.274Z,1004.83
2019-03-11T04:58:26.403Z,1004.85
2019-03-11T04:58:52.498Z,1004.76
2019-03-11T04:59:18.616Z,1004.74
2019-03-11T04:59:44.715Z,1004.75
2019-03-11T05:00:10.824Z,1004.78
2019-03-11T05:00:36.956Z,1004.74
2019-03-11T05:01:03.062Z,1004.79
2019-03-11T05:01:29.164Z,1004.81
2019-03-11T05:01:55.270Z,1004.79
2019-03-11T05:02:21.376Z,1004.81
2019-03-11T05:02:47.480Z,1004.8
2019-03-11T05:03:13.586Z,1004.8
2019-03-11T05:03:39.689Z,1004.87
2019-03-11T05:04:06.779Z,1004.85
2019-03-11T05:04:32.889Z,1004.83
2019-03-11T05:04:58.987Z,1004.83
2019-03-11T05:05:25.096Z,1004.78
2019-03-11T05:05:51.267Z,1004.84
2019-03-11T05:06:17.397Z,1004.86
2019-03-11T05:06:43.503Z,1004.85
2019-03-11T05:07:09.609Z,1004.83
2019-03-11T05:07:35.736Z,1004.89
2019-03-11T05:08:01.908Z,1004.83
2019-03-11T05:08:27.966Z,1004.84
2019-03-11T05:08:54.076Z,1004.84
2019-03-11T05:09:20.177Z,1004.87
2019-03-11T05:09:46.286Z,1004.87
2019-03-11T05:10:12.400Z,1004.87
2019-03-11T05:10:38.493Z,1004.83
2019-03-11T05:11:04.591Z,1004.84
2019-03-11T05:11:30.699Z,1004.87
2019-03-11T05:11:56.804Z,1004.86
2019-03-11T05:12:22.940Z,1004.87
2019-03-11T05:12:49.040Z,1004.87
2019-03-11T05:13:15.140Z,1004.86
2019-03-11T05:13:41.273Z,1004.85
2019-03-11T05:14:07.393Z,1004.85
2019-03-11T05:14:33.514Z,1004.79
2019-03-11T05:14:59.617Z,1004.85
2019-03-11T05:15:25.727Z,1004.82
2019-03-11T05:15:51.863Z,1004.82
2019-03-11T05:16:17.971Z,1004.8
2019-03-11T05:16:44.104Z,1004.81
2019-03-11T05:17:10.206Z,1004.8
2019-03-11T05:17:36.321Z,1004.83